sensor_id;sensor_type;location;lat;lon;timestamp;P1;durP1;ratioP1;P2;durP2;ratioP2
20008;SDS011;10165;42.662;23.260;2022-11-09T00:00:40;18.00;;;10.13;;
20008;SDS011;10165;42.662;23.260;2022-11-09T00:03:07;18.40;;;10.27;;
20008;SDS011;10165;42.662;23.260;2022-11-09T00:05:34;17.47;;;10.70;;
20008;SDS011;10165;42.662;23.260;2022-11-09T00:08:03;20.43;;;12.03;;
20008;SDS011;10165;42.662;23.260;2022-11-09T00:10:32;21.93;;;13.13;;
20008;SDS011;10165;42.662;23.260;2022-11-09T00:12:59;21.63;;;12.20;;
20008;SDS011;10165;42.662;23.260;2022-11-09T00:15:26;21.73;;;12.00;;
20008;SDS011;10165;42.662;23.260;2022-11-09T00:17:53;22.97;;;12.60;;
20008;SDS011;10165;42.662;23.260;2022-11-09T00:20:20;24.37;;;13.90;;
20008;SDS011;10165;42.662;23.260;2022-11-09T00:22:47;21.53;;;13.13;;
20008;SDS011;10165;42.662;23.260;2022-11-09T00:25:14;22.03;;;12.00;;
20008;SDS011;10165;42.662;23.260;2022-11-09T00:27:41;27.87;;;13.17;;
20008;SDS011;10165;42.662;23.260;2022-11-09T00:30:08;22.93;;;11.80;;
20008;SDS011;10165;42.662;23.260;2022-11-09T00:32:37;22.10;;;12.37;;
20008;SDS011;10165;42.662;23.260;2022-11-09T00:35:04;20.27;;;11.50;;
20008;SDS011;10165;42.662;23.260;2022-11-09T00:37:31;21.70;;;12.03;;
20008;SDS011;10165;42.662;23.260;2022-11-09T00:39:58;21.03;;;11.50;;
20008;SDS011;10165;42.662;23.260;2022-11-09T00:42:25;23.00;;;12.27;;
20008;SDS011;10165;42.662;23.260;2022-11-09T00:44:51;18.43;;;11.50;;
20008;SDS011;10165;42.662;23.260;2022-11-09T00:47:18;21.57;;;11.80;;
20008;SDS011;10165;42.662;23.260;2022-11-09T00:49:45;16.53;;;11.03;;
20008;SDS011;10165;42.662;23.260;2022-11-09T00:52:12;19.50;;;11.77;;
20008;SDS011;10165;42.662;23.260;2022-11-09T00:54:38;23.13;;;11.50;;
20008;SDS011;10165;42.662;23.260;2022-11-09T00:57:05;18.67;;;11.67;;
20008;SDS011;10165;42.662;23.260;2022-11-09T00:59:32;21.03;;;12.60;;
20008;SDS011;10165;42.662;23.260;2022-11-09T01:01:58;24.00;;;11.67;;
20008;SDS011;10165;42.662;23.260;2022-11-09T01:04:25;22.90;;;12.47;;
20008;SDS011;10165;42.662;23.260;2022-11-09T01:06:52;22.60;;;12.17;;
20008;SDS011;10165;42.662;23.260;2022-11-09T01:09:24;18.17;;;10.57;;
20008;SDS011;10165;42.662;23.260;2022-11-09T01:11:59;20.50;;;12.03;;
20008;SDS011;10165;42.662;23.260;2022-11-09T01:14:26;20.80;;;11.20;;
20008;SDS011;10165;42.662;23.260;2022-11-09T01:16:53;22.20;;;11.63;;
20008;SDS011;10165;42.662;23.260;2022-11-09T01:19:19;27.27;;;12.70;;
20008;SDS011;10165;42.662;23.260;2022-11-09T01:21:46;19.83;;;11.20;;
20008;SDS011;10165;42.662;23.260;2022-11-09T01:24:13;18.60;;;11.17;;
20008;SDS011;10165;42.662;23.260;2022-11-09T01:26:39;21.63;;;12.33;;
20008;SDS011;10165;42.662;23.260;2022-11-09T01:29:06;19.47;;;11.90;;
20008;SDS011;10165;42.662;23.260;2022-11-09T01:31:32;23.03;;;12.00;;
20008;SDS011;10165;42.662;23.260;2022-11-09T01:33:59;22.17;;;12.03;;
20008;SDS011;10165;42.662;23.260;2022-11-09T01:36:26;23.77;;;11.47;;
20008;SDS011;10165;42.662;23.260;2022-11-09T01:38:52;19.50;;;12.03;;
20008;SDS011;10165;42.662;23.260;2022-11-09T01:41:23;23.80;;;11.90;;
20008;SDS011;10165;42.662;23.260;2022-11-09T01:47:00;17.90;;;10.70;;
20008;SDS011;10165;42.662;23.260;2022-11-09T01:49:46;17.97;;;10.13;;
20008;SDS011;10165;42.662;23.260;2022-11-09T01:54:47;16.27;;;10.37;;
20008;SDS011;10165;42.662;23.260;2022-11-09T01:57:24;17.93;;;10.53;;
20008;SDS011;10165;42.662;23.260;2022-11-09T01:59:56;20.47;;;12.53;;
20008;SDS011;10165;42.662;23.260;2022-11-09T02:02:35;22.57;;;12.90;;
20008;SDS011;10165;42.662;23.260;2022-11-09T02:05:06;18.87;;;11.27;;
20008;SDS011;10165;42.662;23.260;2022-11-09T02:07:36;22.10;;;11.83;;
20008;SDS011;10165;42.662;23.260;2022-11-09T02:10:08;23.23;;;10.90;;
20008;SDS011;10165;42.662;23.260;2022-11-09T02:12:41;19.37;;;11.20;;
20008;SDS011;10165;42.662;23.260;2022-11-09T02:15:09;18.63;;;11.10;;
20008;SDS011;10165;42.662;23.260;2022-11-09T02:17:38;21.93;;;11.90;;
20008;SDS011;10165;42.662;23.260;2022-11-09T02:20:09;20.30;;;11.90;;
20008;SDS011;10165;42.662;23.260;2022-11-09T02:22:37;21.97;;;11.33;;
20008;SDS011;10165;42.662;23.260;2022-11-09T02:25:07;20.27;;;10.80;;
20008;SDS011;10165;42.662;23.260;2022-11-09T02:27:37;21.07;;;11.27;;
20008;SDS011;10165;42.662;23.260;2022-11-09T02:30:05;18.93;;;11.73;;
20008;SDS011;10165;42.662;23.260;2022-11-09T02:32:32;21.90;;;11.40;;
20008;SDS011;10165;42.662;23.260;2022-11-09T02:34:59;20.17;;;11.10;;
20008;SDS011;10165;42.662;23.260;2022-11-09T02:37:27;21.77;;;11.50;;
20008;SDS011;10165;42.662;23.260;2022-11-09T02:39:57;20.87;;;11.70;;
20008;SDS011;10165;42.662;23.260;2022-11-09T02:42:26;22.03;;;10.83;;
20008;SDS011;10165;42.662;23.260;2022-11-09T02:44:54;20.60;;;11.10;;
20008;SDS011;10165;42.662;23.260;2022-11-09T02:47:23;21.97;;;11.00;;
20008;SDS011;10165;42.662;23.260;2022-11-09T02:49:50;24.53;;;12.00;;
20008;SDS011;10165;42.662;23.260;2022-11-09T02:52:17;20.30;;;11.67;;
20008;SDS011;10165;42.662;23.260;2022-11-09T02:54:44;18.30;;;10.60;;
20008;SDS011;10165;42.662;23.260;2022-11-09T02:57:11;20.87;;;11.47;;
20008;SDS011;10165;42.662;23.260;2022-11-09T02:59:38;20.63;;;12.00;;
20008;SDS011;10165;42.662;23.260;2022-11-09T03:02:04;21.00;;;10.77;;
20008;SDS011;10165;42.662;23.260;2022-11-09T03:04:31;19.27;;;10.90;;
20008;SDS011;10165;42.662;23.260;2022-11-09T03:06:58;19.10;;;11.80;;
20008;SDS011;10165;42.662;23.260;2022-11-09T03:09:24;20.00;;;11.73;;
20008;SDS011;10165;42.662;23.260;2022-11-09T03:11:51;18.63;;;11.33;;
20008;SDS011;10165;42.662;23.260;2022-11-09T03:14:18;23.90;;;11.93;;
20008;SDS011;10165;42.662;23.260;2022-11-09T03:16:44;19.37;;;11.70;;
20008;SDS011;10165;42.662;23.260;2022-11-09T03:19:16;16.00;;;9.77;;
20008;SDS011;10165;42.662;23.260;2022-11-09T03:21:42;16.97;;;11.10;;
20008;SDS011;10165;42.662;23.260;2022-11-09T03:24:09;18.53;;;10.70;;
20008;SDS011;10165;42.662;23.260;2022-11-09T03:26:35;21.43;;;11.53;;
20008;SDS011;10165;42.662;23.260;2022-11-09T03:29:02;17.60;;;11.10;;
20008;SDS011;10165;42.662;23.260;2022-11-09T03:31:29;22.27;;;10.93;;
20008;SDS011;10165;42.662;23.260;2022-11-09T03:33:55;20.67;;;11.80;;
20008;SDS011;10165;42.662;23.260;2022-11-09T03:36:22;22.50;;;12.13;;
20008;SDS011;10165;42.662;23.260;2022-11-09T03:38:48;18.73;;;10.03;;
20008;SDS011;10165;42.662;23.260;2022-11-09T03:41:15;19.50;;;10.80;;
20008;SDS011;10165;42.662;23.260;2022-11-09T03:43:41;18.33;;;9.87;;
20008;SDS011;10165;42.662;23.260;2022-11-09T03:46:08;17.00;;;9.70;;
20008;SDS011;10165;42.662;23.260;2022-11-09T03:48:35;13.70;;;9.90;;
20008;SDS011;10165;42.662;23.260;2022-11-09T03:51:01;16.63;;;10.53;;
20008;SDS011;10165;42.662;23.260;2022-11-09T03:53:28;18.37;;;9.50;;
20008;SDS011;10165;42.662;23.260;2022-11-09T03:55:56;19.20;;;11.77;;
20008;SDS011;10165;42.662;23.260;2022-11-09T03:58:23;17.80;;;10.47;;
20008;SDS011;10165;42.662;23.260;2022-11-09T04:00:49;18.30;;;10.40;;
20008;SDS011;10165;42.662;23.260;2022-11-09T04:03:17;14.60;;;9.93;;
20008;SDS011;10165;42.662;23.260;2022-11-09T04:05:44;20.60;;;11.30;;
20008;SDS011;10165;42.662;23.260;2022-11-09T04:08:10;17.70;;;10.53;;
20008;SDS011;10165;42.662;23.260;2022-11-09T04:10:37;18.77;;;9.77;;
20008;SDS011;10165;42.662;23.260;2022-11-09T04:13:03;19.50;;;10.93;;
20008;SDS011;10165;42.662;23.260;2022-11-09T04:15:30;24.50;;;11.40;;
20008;SDS011;10165;42.662;23.260;2022-11-09T04:17:57;18.07;;;10.60;;
20008;SDS011;10165;42.662;23.260;2022-11-09T04:20:25;20.43;;;9.90;;
20008;SDS011;10165;42.662;23.260;2022-11-09T04:22:54;22.23;;;10.70;;
20008;SDS011;10165;42.662;23.260;2022-11-09T04:25:22;21.07;;;10.47;;
20008;SDS011;10165;42.662;23.260;2022-11-09T04:27:57;20.63;;;10.80;;
20008;SDS011;10165;42.662;23.260;2022-11-09T04:30:25;20.10;;;10.67;;
20008;SDS011;10165;42.662;23.260;2022-11-09T04:32:56;21.77;;;11.37;;
20008;SDS011;10165;42.662;23.260;2022-11-09T04:35:25;21.93;;;11.40;;
20008;SDS011;10165;42.662;23.260;2022-11-09T04:37:57;21.50;;;11.00;;
20008;SDS011;10165;42.662;23.260;2022-11-09T04:40:29;17.50;;;10.73;;
20008;SDS011;10165;42.662;23.260;2022-11-09T04:43:00;17.17;;;10.30;;
20008;SDS011;10165;42.662;23.260;2022-11-09T04:45:32;21.70;;;10.53;;
20008;SDS011;10165;42.662;23.260;2022-11-09T04:48:00;23.40;;;11.90;;
20008;SDS011;10165;42.662;23.260;2022-11-09T04:50:28;21.93;;;12.83;;
20008;SDS011;10165;42.662;23.260;2022-11-09T04:53:09;22.07;;;11.40;;
20008;SDS011;10165;42.662;23.260;2022-11-09T04:55:37;22.17;;;11.63;;
20008;SDS011;10165;42.662;23.260;2022-11-09T04:58:04;23.77;;;11.53;;
20008;SDS011;10165;42.662;23.260;2022-11-09T05:00:31;25.67;;;13.33;;
20008;SDS011;10165;42.662;23.260;2022-11-09T05:03:02;23.97;;;13.53;;
20008;SDS011;10165;42.662;23.260;2022-11-09T05:05:31;22.63;;;13.13;;
20008;SDS011;10165;42.662;23.260;2022-11-09T05:07:59;21.93;;;12.57;;
20008;SDS011;10165;42.662;23.260;2022-11-09T05:10:26;23.37;;;12.27;;
20008;SDS011;10165;42.662;23.260;2022-11-09T05:13:04;25.17;;;13.03;;
20008;SDS011;10165;42.662;23.260;2022-11-09T05:15:35;20.40;;;12.10;;
20008;SDS011;10165;42.662;23.260;2022-11-09T05:18:02;18.53;;;10.20;;
20008;SDS011;10165;42.662;23.260;2022-11-09T05:20:36;22.53;;;12.30;;
20008;SDS011;10165;42.662;23.260;2022-11-09T05:23:08;24.20;;;13.33;;
20008;SDS011;10165;42.662;23.260;2022-11-09T05:25:53;19.50;;;10.90;;
20008;SDS011;10165;42.662;23.260;2022-11-09T05:28:20;19.37;;;10.73;;
20008;SDS011;10165;42.662;23.260;2022-11-09T05:30:47;22.67;;;11.60;;
20008;SDS011;10165;42.662;23.260;2022-11-09T05:33:13;18.37;;;10.10;;
20008;SDS011;10165;42.662;23.260;2022-11-09T05:35:42;17.20;;;10.40;;
20008;SDS011;10165;42.662;23.260;2022-11-09T05:38:09;20.40;;;10.60;;
20008;SDS011;10165;42.662;23.260;2022-11-09T05:40:35;24.80;;;9.90;;
20008;SDS011;10165;42.662;23.260;2022-11-09T05:43:04;16.73;;;11.03;;
20008;SDS011;10165;42.662;23.260;2022-11-09T05:45:31;18.60;;;11.50;;
20008;SDS011;10165;42.662;23.260;2022-11-09T05:48:14;21.70;;;12.27;;
20008;SDS011;10165;42.662;23.260;2022-11-09T05:50:42;22.20;;;10.87;;
20008;SDS011;10165;42.662;23.260;2022-11-09T05:53:10;19.93;;;11.13;;
20008;SDS011;10165;42.662;23.260;2022-11-09T05:55:37;20.77;;;12.43;;
20008;SDS011;10165;42.662;23.260;2022-11-09T05:58:05;23.97;;;13.37;;
20008;SDS011;10165;42.662;23.260;2022-11-09T06:00:32;25.57;;;11.60;;
20008;SDS011;10165;42.662;23.260;2022-11-09T06:03:05;17.83;;;11.63;;
20008;SDS011;10165;42.662;23.260;2022-11-09T06:05:34;24.03;;;10.70;;
20008;SDS011;10165;42.662;23.260;2022-11-09T06:08:06;19.20;;;11.10;;
20008;SDS011;10165;42.662;23.260;2022-11-09T06:10:35;15.53;;;10.23;;
20008;SDS011;10165;42.662;23.260;2022-11-09T06:13:02;21.30;;;11.23;;
20008;SDS011;10165;42.662;23.260;2022-11-09T06:15:29;20.17;;;10.70;;
20008;SDS011;10165;42.662;23.260;2022-11-09T06:17:56;18.57;;;9.73;;
20008;SDS011;10165;42.662;23.260;2022-11-09T06:20:24;18.50;;;11.27;;
20008;SDS011;10165;42.662;23.260;2022-11-09T06:22:56;21.30;;;12.90;;
20008;SDS011;10165;42.662;23.260;2022-11-09T06:25:29;27.97;;;14.07;;
20008;SDS011;10165;42.662;23.260;2022-11-09T06:27:56;25.13;;;13.63;;
20008;SDS011;10165;42.662;23.260;2022-11-09T06:30:23;22.77;;;12.93;;
20008;SDS011;10165;42.662;23.260;2022-11-09T06:32:50;19.13;;;11.70;;
20008;SDS011;10165;42.662;23.260;2022-11-09T06:35:17;21.90;;;12.53;;
20008;SDS011;10165;42.662;23.260;2022-11-09T06:37:43;18.67;;;11.40;;
20008;SDS011;10165;42.662;23.260;2022-11-09T06:40:10;18.20;;;11.50;;
20008;SDS011;10165;42.662;23.260;2022-11-09T06:42:37;21.63;;;11.60;;
20008;SDS011;10165;42.662;23.260;2022-11-09T06:45:04;19.40;;;11.97;;
20008;SDS011;10165;42.662;23.260;2022-11-09T06:47:31;18.73;;;11.23;;
20008;SDS011;10165;42.662;23.260;2022-11-09T06:49:58;19.73;;;12.13;;
20008;SDS011;10165;42.662;23.260;2022-11-09T06:52:25;23.07;;;13.53;;
20008;SDS011;10165;42.662;23.260;2022-11-09T06:54:51;18.20;;;12.77;;
20008;SDS011;10165;42.662;23.260;2022-11-09T06:57:18;23.53;;;12.60;;
20008;SDS011;10165;42.662;23.260;2022-11-09T06:59:45;23.90;;;13.10;;
20008;SDS011;10165;42.662;23.260;2022-11-09T07:02:13;25.60;;;12.80;;
20008;SDS011;10165;42.662;23.260;2022-11-09T07:04:42;19.53;;;11.77;;
20008;SDS011;10165;42.662;23.260;2022-11-09T07:07:09;23.13;;;13.37;;
20008;SDS011;10165;42.662;23.260;2022-11-09T07:09:36;18.20;;;11.43;;
20008;SDS011;10165;42.662;23.260;2022-11-09T07:12:03;21.93;;;13.20;;
20008;SDS011;10165;42.662;23.260;2022-11-09T07:14:29;23.10;;;13.70;;
20008;SDS011;10165;42.662;23.260;2022-11-09T07:16:58;24.80;;;14.23;;
20008;SDS011;10165;42.662;23.260;2022-11-09T07:19:25;27.97;;;14.60;;
20008;SDS011;10165;42.662;23.260;2022-11-09T07:21:54;30.40;;;15.60;;
20008;SDS011;10165;42.662;23.260;2022-11-09T07:24:21;28.60;;;14.87;;
20008;SDS011;10165;42.662;23.260;2022-11-09T07:26:48;23.73;;;14.03;;
20008;SDS011;10165;42.662;23.260;2022-11-09T07:29:15;28.80;;;14.30;;
20008;SDS011;10165;42.662;23.260;2022-11-09T07:31:42;30.33;;;15.23;;
20008;SDS011;10165;42.662;23.260;2022-11-09T07:34:09;25.03;;;14.17;;
20008;SDS011;10165;42.662;23.260;2022-11-09T07:36:35;30.53;;;16.93;;
20008;SDS011;10165;42.662;23.260;2022-11-09T07:39:02;27.83;;;15.27;;
20008;SDS011;10165;42.662;23.260;2022-11-09T07:41:29;30.70;;;16.70;;
20008;SDS011;10165;42.662;23.260;2022-11-09T07:44:00;32.03;;;16.57;;
20008;SDS011;10165;42.662;23.260;2022-11-09T07:46:27;29.77;;;15.47;;
20008;SDS011;10165;42.662;23.260;2022-11-09T07:48:53;31.70;;;16.90;;
20008;SDS011;10165;42.662;23.260;2022-11-09T07:51:20;28.57;;;17.13;;
20008;SDS011;10165;42.662;23.260;2022-11-09T07:53:47;31.40;;;16.97;;
20008;SDS011;10165;42.662;23.260;2022-11-09T07:56:14;29.93;;;16.53;;
20008;SDS011;10165;42.662;23.260;2022-11-09T07:58:40;34.57;;;18.90;;
20008;SDS011;10165;42.662;23.260;2022-11-09T08:01:08;32.87;;;18.20;;
20008;SDS011;10165;42.662;23.260;2022-11-09T08:03:35;27.47;;;15.70;;
20008;SDS011;10165;42.662;23.260;2022-11-09T08:06:02;32.27;;;16.83;;
20008;SDS011;10165;42.662;23.260;2022-11-09T08:08:29;34.20;;;17.13;;
20008;SDS011;10165;42.662;23.260;2022-11-09T08:10:56;34.17;;;17.10;;
20008;SDS011;10165;42.662;23.260;2022-11-09T08:13:23;38.27;;;18.47;;
20008;SDS011;10165;42.662;23.260;2022-11-09T08:15:51;35.20;;;18.50;;
20008;SDS011;10165;42.662;23.260;2022-11-09T08:18:18;31.37;;;18.17;;
20008;SDS011;10165;42.662;23.260;2022-11-09T08:20:46;35.13;;;18.23;;
20008;SDS011;10165;42.662;23.260;2022-11-09T08:23:14;34.00;;;17.77;;
20008;SDS011;10165;42.662;23.260;2022-11-09T08:25:43;34.93;;;18.67;;
20008;SDS011;10165;42.662;23.260;2022-11-09T08:28:10;37.53;;;19.50;;
20008;SDS011;10165;42.662;23.260;2022-11-09T08:30:40;40.17;;;18.43;;
20008;SDS011;10165;42.662;23.260;2022-11-09T08:33:08;32.63;;;18.03;;
20008;SDS011;10165;42.662;23.260;2022-11-09T08:35:36;34.90;;;18.60;;
20008;SDS011;10165;42.662;23.260;2022-11-09T08:38:03;38.70;;;18.57;;
20008;SDS011;10165;42.662;23.260;2022-11-09T08:40:31;33.33;;;18.37;;
20008;SDS011;10165;42.662;23.260;2022-11-09T08:43:03;31.23;;;17.53;;
20008;SDS011;10165;42.662;23.260;2022-11-09T08:45:32;32.37;;;17.60;;
20008;SDS011;10165;42.662;23.260;2022-11-09T08:48:00;33.67;;;18.40;;
20008;SDS011;10165;42.662;23.260;2022-11-09T08:50:28;38.30;;;19.40;;
20008;SDS011;10165;42.662;23.260;2022-11-09T08:52:56;40.03;;;18.63;;
20008;SDS011;10165;42.662;23.260;2022-11-09T08:55:23;31.23;;;16.73;;
20008;SDS011;10165;42.662;23.260;2022-11-09T08:57:54;28.73;;;15.80;;
20008;SDS011;10165;42.662;23.260;2022-11-09T09:00:25;28.00;;;16.73;;
20008;SDS011;10165;42.662;23.260;2022-11-09T09:02:53;33.87;;;18.70;;
20008;SDS011;10165;42.662;23.260;2022-11-09T09:05:20;36.90;;;17.57;;
20008;SDS011;10165;42.662;23.260;2022-11-09T09:07:50;32.37;;;17.40;;
20008;SDS011;10165;42.662;23.260;2022-11-09T09:10:16;26.03;;;16.27;;
20008;SDS011;10165;42.662;23.260;2022-11-09T09:12:43;30.83;;;15.77;;
20008;SDS011;10165;42.662;23.260;2022-11-09T09:15:10;30.73;;;16.33;;
20008;SDS011;10165;42.662;23.260;2022-11-09T09:17:36;29.37;;;15.77;;
20008;SDS011;10165;42.662;23.260;2022-11-09T09:20:03;29.67;;;16.27;;
20008;SDS011;10165;42.662;23.260;2022-11-09T09:22:30;29.93;;;15.33;;
20008;SDS011;10165;42.662;23.260;2022-11-09T09:25:01;26.77;;;16.37;;
20008;SDS011;10165;42.662;23.260;2022-11-09T09:27:28;29.33;;;16.30;;
20008;SDS011;10165;42.662;23.260;2022-11-09T09:29:55;31.90;;;16.43;;
20008;SDS011;10165;42.662;23.260;2022-11-09T09:32:22;27.43;;;16.83;;
20008;SDS011;10165;42.662;23.260;2022-11-09T09:34:52;33.50;;;16.70;;
20008;SDS011;10165;42.662;23.260;2022-11-09T09:37:18;35.30;;;16.63;;
20008;SDS011;10165;42.662;23.260;2022-11-09T09:39:45;29.77;;;16.90;;
20008;SDS011;10165;42.662;23.260;2022-11-09T09:42:19;31.43;;;15.93;;
20008;SDS011;10165;42.662;23.260;2022-11-09T09:45:00;29.37;;;16.13;;
20008;SDS011;10165;42.662;23.260;2022-11-09T09:53:26;30.37;;;17.23;;
20008;SDS011;10165;42.662;23.260;2022-11-09T09:56:02;37.67;;;17.47;;
20008;SDS011;10165;42.662;23.260;2022-11-09T09:58:33;25.43;;;15.13;;
20008;SDS011;10165;42.662;23.260;2022-11-09T10:01:10;27.60;;;15.20;;
20008;SDS011;10165;42.662;23.260;2022-11-09T10:03:41;29.63;;;15.73;;
20008;SDS011;10165;42.662;23.260;2022-11-09T10:14:36;28.90;;;15.93;;
20008;SDS011;10165;42.662;23.260;2022-11-09T10:25:37;22.97;;;13.53;;
20008;SDS011;10165;42.662;23.260;2022-11-09T10:28:25;29.53;;;15.33;;
20008;SDS011;10165;42.662;23.260;2022-11-09T10:31:16;24.47;;;15.27;;
20008;SDS011;10165;42.662;23.260;2022-11-09T10:33:46;25.77;;;15.70;;
20008;SDS011;10165;42.662;23.260;2022-11-09T10:39:17;25.70;;;15.43;;
20008;SDS011;10165;42.662;23.260;2022-11-09T10:41:44;28.30;;;14.73;;
20008;SDS011;10165;42.662;23.260;2022-11-09T10:44:13;23.70;;;13.63;;
20008;SDS011;10165;42.662;23.260;2022-11-09T10:47:02;24.03;;;13.40;;
20008;SDS011;10165;42.662;23.260;2022-11-09T10:49:40;22.37;;;13.30;;
20008;SDS011;10165;42.662;23.260;2022-11-09T10:55:16;24.50;;;14.43;;
20008;SDS011;10165;42.662;23.260;2022-11-09T10:57:49;24.50;;;13.27;;
20008;SDS011;10165;42.662;23.260;2022-11-09T11:00:27;21.30;;;14.40;;
20008;SDS011;10165;42.662;23.260;2022-11-09T11:02:54;19.17;;;13.43;;
20008;SDS011;10165;42.662;23.260;2022-11-09T11:05:23;25.03;;;14.13;;
20008;SDS011;10165;42.662;23.260;2022-11-09T11:07:51;21.77;;;14.10;;
20008;SDS011;10165;42.662;23.260;2022-11-09T11:10:18;24.50;;;14.47;;
20008;SDS011;10165;42.662;23.260;2022-11-09T11:17:59;29.73;;;14.80;;
20008;SDS011;10165;42.662;23.260;2022-11-09T11:20:29;25.43;;;14.60;;
20008;SDS011;10165;42.662;23.260;2022-11-09T11:31:03;25.37;;;14.07;;
20008;SDS011;10165;42.662;23.260;2022-11-09T11:33:32;24.70;;;14.50;;
20008;SDS011;10165;42.662;23.260;2022-11-09T11:36:10;25.13;;;14.80;;
20008;SDS011;10165;42.662;23.260;2022-11-09T11:47:24;26.47;;;14.43;;
20008;SDS011;10165;42.662;23.260;2022-11-09T11:50:34;24.53;;;13.53;;
20008;SDS011;10165;42.662;23.260;2022-11-09T11:55:53;25.50;;;15.37;;
20008;SDS011;10165;42.662;23.260;2022-11-09T12:01:06;33.57;;;16.97;;
20008;SDS011;10165;42.662;23.260;2022-11-09T12:06:40;23.40;;;14.37;;
20008;SDS011;10165;42.662;23.260;2022-11-09T12:09:17;24.97;;;14.60;;
20008;SDS011;10165;42.662;23.260;2022-11-09T12:12:22;32.00;;;18.50;;
20008;SDS011;10165;42.662;23.260;2022-11-09T12:20:37;35.67;;;18.60;;
20008;SDS011;10165;42.662;23.260;2022-11-09T12:28:53;40.60;;;19.60;;
20008;SDS011;10165;42.662;23.260;2022-11-09T12:31:44;32.97;;;18.07;;
20008;SDS011;10165;42.662;23.260;2022-11-09T12:34:36;34.37;;;19.00;;
20008;SDS011;10165;42.662;23.260;2022-11-09T12:37:27;32.93;;;16.83;;
20008;SDS011;10165;42.662;23.260;2022-11-09T12:40:05;33.10;;;17.57;;
20008;SDS011;10165;42.662;23.260;2022-11-09T12:42:59;31.77;;;17.63;;
20008;SDS011;10165;42.662;23.260;2022-11-09T12:48:14;37.57;;;19.27;;
20008;SDS011;10165;42.662;23.260;2022-11-09T12:50:51;34.00;;;19.03;;
20008;SDS011;10165;42.662;23.260;2022-11-09T12:53:19;37.47;;;18.93;;
20008;SDS011;10165;42.662;23.260;2022-11-09T12:58:29;33.30;;;18.23;;
20008;SDS011;10165;42.662;23.260;2022-11-09T13:00:58;32.53;;;18.13;;
20008;SDS011;10165;42.662;23.260;2022-11-09T13:03:28;34.30;;;16.97;;
20008;SDS011;10165;42.662;23.260;2022-11-09T13:06:09;37.50;;;19.00;;
20008;SDS011;10165;42.662;23.260;2022-11-09T13:08:39;35.67;;;18.27;;
20008;SDS011;10165;42.662;23.260;2022-11-09T13:11:09;35.83;;;18.80;;
20008;SDS011;10165;42.662;23.260;2022-11-09T13:13:42;32.67;;;18.03;;
20008;SDS011;10165;42.662;23.260;2022-11-09T13:16:10;25.40;;;16.00;;
20008;SDS011;10165;42.662;23.260;2022-11-09T13:19:01;24.87;;;16.07;;
20008;SDS011;10165;42.662;23.260;2022-11-09T13:23:55;31.40;;;15.70;;
20008;SDS011;10165;42.662;23.260;2022-11-09T13:42:57;26.83;;;15.47;;
20008;SDS011;10165;42.662;23.260;2022-11-09T13:45:51;27.87;;;14.93;;
20008;SDS011;10165;42.662;23.260;2022-11-09T13:51:11;27.70;;;15.60;;
20008;SDS011;10165;42.662;23.260;2022-11-09T13:59:12;26.07;;;14.03;;
20008;SDS011;10165;42.662;23.260;2022-11-09T14:01:45;26.13;;;15.77;;
20008;SDS011;10165;42.662;23.260;2022-11-09T14:06:48;31.53;;;16.07;;
20008;SDS011;10165;42.662;23.260;2022-11-09T14:09:16;28.00;;;16.50;;
20008;SDS011;10165;42.662;23.260;2022-11-09T14:23:32;30.33;;;15.87;;
20008;SDS011;10165;42.662;23.260;2022-11-09T14:26:06;24.50;;;16.00;;
20008;SDS011;10165;42.662;23.260;2022-11-09T14:28:43;28.70;;;16.40;;
20008;SDS011;10165;42.662;23.260;2022-11-09T14:31:23;35.03;;;18.97;;
20008;SDS011;10165;42.662;23.260;2022-11-09T14:34:01;29.10;;;16.33;;
20008;SDS011;10165;42.662;23.260;2022-11-09T14:36:30;28.10;;;16.23;;
20008;SDS011;10165;42.662;23.260;2022-11-09T14:39:01;31.67;;;16.03;;
20008;SDS011;10165;42.662;23.260;2022-11-09T14:41:30;30.27;;;16.50;;
20008;SDS011;10165;42.662;23.260;2022-11-09T14:43:57;32.57;;;16.87;;
20008;SDS011;10165;42.662;23.260;2022-11-09T14:46:26;35.77;;;17.60;;
20008;SDS011;10165;42.662;23.260;2022-11-09T14:48:55;29.67;;;17.23;;
20008;SDS011;10165;42.662;23.260;2022-11-09T14:51:29;28.97;;;16.07;;
20008;SDS011;10165;42.662;23.260;2022-11-09T14:53:59;35.07;;;18.23;;
20008;SDS011;10165;42.662;23.260;2022-11-09T14:56:27;37.03;;;17.10;;
20008;SDS011;10165;42.662;23.260;2022-11-09T14:58:59;41.67;;;19.03;;
20008;SDS011;10165;42.662;23.260;2022-11-09T15:01:32;40.60;;;19.90;;
20008;SDS011;10165;42.662;23.260;2022-11-09T15:06:57;47.67;;;21.03;;
20008;SDS011;10165;42.662;23.260;2022-11-09T15:09:47;41.87;;;19.03;;
20008;SDS011;10165;42.662;23.260;2022-11-09T15:12:27;38.33;;;21.90;;
20008;SDS011;10165;42.662;23.260;2022-11-09T15:14:57;31.47;;;17.07;;
20008;SDS011;10165;42.662;23.260;2022-11-09T15:20:32;37.33;;;18.47;;
20008;SDS011;10165;42.662;23.260;2022-11-09T15:25:36;36.80;;;17.47;;
20008;SDS011;10165;42.662;23.260;2022-11-09T15:32:16;32.93;;;16.87;;
20008;SDS011;10165;42.662;23.260;2022-11-09T15:37:46;36.67;;;17.83;;
20008;SDS011;10165;42.662;23.260;2022-11-09T15:40:32;29.27;;;17.07;;
20008;SDS011;10165;42.662;23.260;2022-11-09T15:43:01;28.80;;;15.73;;
20008;SDS011;10165;42.662;23.260;2022-11-09T15:45:28;37.77;;;17.60;;
20008;SDS011;10165;42.662;23.260;2022-11-09T15:47:55;33.97;;;17.97;;
20008;SDS011;10165;42.662;23.260;2022-11-09T15:50:23;29.43;;;15.47;;
20008;SDS011;10165;42.662;23.260;2022-11-09T15:52:53;36.87;;;17.57;;
20008;SDS011;10165;42.662;23.260;2022-11-09T15:55:20;33.00;;;17.67;;
20008;SDS011;10165;42.662;23.260;2022-11-09T15:57:48;30.97;;;15.87;;
20008;SDS011;10165;42.662;23.260;2022-11-09T16:00:16;35.30;;;15.73;;
20008;SDS011;10165;42.662;23.260;2022-11-09T16:02:46;29.20;;;17.43;;
20008;SDS011;10165;42.662;23.260;2022-11-09T16:05:13;27.67;;;15.93;;
20008;SDS011;10165;42.662;23.260;2022-11-09T16:07:47;36.47;;;17.70;;
20008;SDS011;10165;42.662;23.260;2022-11-09T16:10:15;33.47;;;16.50;;
20008;SDS011;10165;42.662;23.260;2022-11-09T16:12:45;33.27;;;17.00;;
20008;SDS011;10165;42.662;23.260;2022-11-09T16:15:12;33.70;;;18.77;;
20008;SDS011;10165;42.662;23.260;2022-11-09T16:17:39;26.87;;;16.63;;
20008;SDS011;10165;42.662;23.260;2022-11-09T16:20:08;33.53;;;17.87;;
20008;SDS011;10165;42.662;23.260;2022-11-09T16:22:35;32.73;;;18.73;;
20008;SDS011;10165;42.662;23.260;2022-11-09T16:25:02;36.37;;;19.93;;
20008;SDS011;10165;42.662;23.260;2022-11-09T16:27:29;40.07;;;19.73;;
20008;SDS011;10165;42.662;23.260;2022-11-09T16:30:16;35.30;;;18.93;;
20008;SDS011;10165;42.662;23.260;2022-11-09T16:32:44;30.20;;;17.73;;
20008;SDS011;10165;42.662;23.260;2022-11-09T16:35:11;31.93;;;17.97;;
20008;SDS011;10165;42.662;23.260;2022-11-09T16:37:53;31.00;;;17.77;;
20008;SDS011;10165;42.662;23.260;2022-11-09T16:40:20;32.27;;;18.13;;
20008;SDS011;10165;42.662;23.260;2022-11-09T16:42:48;35.93;;;18.97;;